createdAt,value
2022-11-28T00:01:36.800Z,8.10
2022-11-28T00:04:06.448Z,8.10
2022-11-28T00:06:39.708Z,8.10
2022-11-28T00:09:08.762Z,8.10
2022-11-28T00:11:37.016Z,8.10
2022-11-28T00:14:05.335Z,8.10
2022-11-28T00:16:32.682Z,8.10
2022-11-28T00:19:01.191Z,8.10
2022-11-28T00:21:29.115Z,8.10
2022-11-28T00:24:00.997Z,8.10
2022-11-28T00:26:32.500Z,8.10
2022-11-28T00:29:03.392Z,8.10
2022-11-28T00:31:36.759Z,8.00
2022-11-28T00:34:04.018Z,8.00
2022-11-28T00:36:31.510Z,7.90
2022-11-28T00:39:02.171Z,7.90
2022-11-28T00:41:31.335Z,7.90
2022-11-28T00:43:58.828Z,7.90
2022-11-28T00:46:26.288Z,7.90
2022-11-28T00:48:54.221Z,7.90
2022-11-28T00:51:27.271Z,7.90
2022-11-28T00:53:55.995Z,7.90
2022-11-28T00:56:26.906Z,7.80
2022-11-28T00:58:54.509Z,7.80
2022-11-28T01:01:25.181Z,7.80
2022-11-28T01:03:54.520Z,7.80
2022-11-28T01:06:27.527Z,7.80
2022-11-28T01:08:59.659Z,7.80
2022-11-28T01:11:27.213Z,7.70
2022-11-28T01:13:56.551Z,7.70
2022-11-28T01:16:24.298Z,7.70
2022-11-28T01:18:52.015Z,7.60
2022-11-28T01:21:20.212Z,7.60
2022-11-28T01:23:47.505Z,7.60
2022-11-28T01:26:20.933Z,7.60
2022-11-28T01:28:48.661Z,7.60
2022-11-28T01:31:18.991Z,7.60
2022-11-28T01:33:49.830Z,7.50
2022-11-28T01:36:18.339Z,7.50
2022-11-28T01:38:45.772Z,7.50
2022-11-28T01:41:19.230Z,7.50
2022-11-28T01:44:13.577Z,7.50
2022-11-28T01:46:40.989Z,7.50
2022-11-28T01:49:19.956Z,7.50
2022-11-28T01:51:50.644Z,7.40
2022-11-28T01:54:23.771Z,7.40
2022-11-28T01:57:13.722Z,7.40
2022-11-28T01:59:45.469Z,7.40
2022-11-28T02:02:37.146Z,7.40
2022-11-28T02:05:04.666Z,7.40
2022-11-28T02:07:32.165Z,7.40
2022-11-28T02:10:01.222Z,7.40
2022-11-28T02:12:35.378Z,7.40
2022-11-28T02:15:17.248Z,7.40
2022-11-28T02:18:11.471Z,7.40
2022-11-28T02:21:25.008Z,7.30
2022-11-28T02:24:10.981Z,7.30
2022-11-28T02:26:58.628Z,7.30
2022-11-28T02:29:51.901Z,7.30
2022-11-28T02:32:37.144Z,7.30
2022-11-28T02:35:13.733Z,7.30
2022-11-28T02:38:00.290Z,7.30
2022-11-28T02:41:02.510Z,7.20
2022-11-28T02:43:44.647Z,7.30
2022-11-28T02:46:11.896Z,7.20
2022-11-28T02:49:04.740Z,7.20
2022-11-28T02:51:39.421Z,7.20
2022-11-28T02:54:10.641Z,7.20
2022-11-28T02:56:38.160Z,7.20
2022-11-28T02:59:18.929Z,7.20
2022-11-28T03:01:49.593Z,7.20
2022-11-28T03:04:22.772Z,7.20
2022-11-28T03:07:09.871Z,7.20
2022-11-28T03:09:49.159Z,7.20
2022-11-28T03:12:46.272Z,7.20
2022-11-28T03:15:17.717Z,7.20
2022-11-28T03:18:07.717Z,7.20
2022-11-28T03:20:43.826Z,7.10
2022-11-28T03:23:16.462Z,7.10
2022-11-28T03:26:21.619Z,7.10
2022-11-28T03:29:01.135Z,7.10
2022-11-28T03:31:39.046Z,7.10
2022-11-28T03:34:10.540Z,7.10
2022-11-28T03:37:07.654Z,7.10
2022-11-28T03:39:40.104Z,7.10
2022-11-28T03:42:14.424Z,7.10
2022-11-28T03:45:08.535Z,7.10
2022-11-28T03:47:40.533Z,7.00
2022-11-28T03:50:14.242Z,7.00
2022-11-28T03:52:47.515Z,7.00
2022-11-28T03:55:30.504Z,7.00
2022-11-28T03:58:03.608Z,7.00
2022-11-28T04:00:31.372Z,7.00
2022-11-28T04:03:40.862Z,7.00
2022-11-28T04:06:23.231Z,6.90
2022-11-28T04:09:17.638Z,6.90
2022-11-28T04:11:56.848Z,6.90
2022-11-28T04:14:31.237Z,6.90
2022-11-28T04:17:26.917Z,6.90
2022-11-28T04:20:12.582Z,6.90
2022-11-28T04:22:49.015Z,6.90
2022-11-28T04:25:22.065Z,6.90
2022-11-28T04:27:58.056Z,6.90
2022-11-28T04:30:26.218Z,6.90
2022-11-28T04:32:59.358Z,6.90
2022-11-28T04:35:34.415Z,6.90
2022-11-28T04:38:03.914Z,6.90
2022-11-28T04:40:38.878Z,6.90
2022-11-28T04:43:11.283Z,6.90
2022-11-28T04:45:44.847Z,6.80
2022-11-28T04:48:12.407Z,6.90
2022-11-28T04:51:15.602Z,6.80
2022-11-28T04:54:27.105Z,6.80
2022-11-28T04:57:01.339Z,6.80
2022-11-28T04:59:33.356Z,6.90
2022-11-28T05:02:05.000Z,6.80
2022-11-28T05:04:36.101Z,6.80
2022-11-28T05:07:08.619Z,6.80
2022-11-28T05:09:36.408Z,6.90
2022-11-28T05:12:03.960Z,6.80
2022-11-28T05:14:34.421Z,6.80
2022-11-28T05:17:05.792Z,6.80
2022-11-28T05:19:33.345Z,6.80
2022-11-28T05:22:00.498Z,6.80
2022-11-28T05:24:32.502Z,6.80
2022-11-28T05:26:59.974Z,6.80
2022-11-28T05:29:27.159Z,6.80
2022-11-28T05:31:54.667Z,6.80
2022-11-28T05:34:22.998Z,6.80
2022-11-28T05:36:53.322Z,6.80
2022-11-28T05:39:23.584Z,6.70
2022-11-28T05:41:50.691Z,6.80
2022-11-28T05:44:21.580Z,6.80
2022-11-28T05:46:51.344Z,6.80
2022-11-28T05:49:21.247Z,6.80
2022-11-28T05:51:49.532Z,6.80
2022-11-28T05:54:16.770Z,6.80
2022-11-28T05:56:48.158Z,6.80
2022-11-28T05:59:15.360Z,6.80
2022-11-28T06:01:42.896Z,6.80
2022-11-28T06:04:11.145Z,6.80
2022-11-28T06:06:38.483Z,6.80
2022-11-28T06:09:06.680Z,6.80
2022-11-28T06:11:34.969Z,6.80
2022-11-28T06:14:03.427Z,6.80
2022-11-28T06:16:31.787Z,6.80
2022-11-28T06:19:01.651Z,6.90
2022-11-28T06:21:30.366Z,6.80
2022-11-28T06:23:58.921Z,6.80
2022-11-28T06:26:27.159Z,6.80
2022-11-28T06:28:55.772Z,6.80
2022-11-28T06:31:28.875Z,6.80
2022-11-28T06:33:59.763Z,6.80
2022-11-28T06:36:27.441Z,6.80
2022-11-28T06:38:58.646Z,6.80
2022-11-28T06:41:25.957Z,6.80
2022-11-28T06:43:53.297Z,6.80
2022-11-28T06:46:21.579Z,6.70
2022-11-28T06:48:50.550Z,6.70
2022-11-28T06:51:18.701Z,6.70
2022-11-28T06:53:49.435Z,6.70
2022-11-28T06:56:19.841Z,6.60
2022-11-28T06:58:47.569Z,6.70
2022-11-28T07:01:20.239Z,6.60
2022-11-28T07:03:48.635Z,6.60
2022-11-28T07:06:18.395Z,6.60
2022-11-28T07:08:46.723Z,6.60
2022-11-28T07:11:20.674Z,6.60
2022-11-28T07:13:49.018Z,6.70
2022-11-28T07:16:27.358Z,6.70
2022-11-28T07:18:55.947Z,6.70
2022-11-28T07:21:24.247Z,6.80
2022-11-28T07:23:51.675Z,6.80
2022-11-28T07:26:21.680Z,6.80
2022-11-28T07:28:50.400Z,6.80
2022-11-28T07:31:25.853Z,6.90
2022-11-28T07:33:53.316Z,6.90
2022-11-28T07:36:26.263Z,6.90
2022-11-28T07:38:55.869Z,6.90
2022-11-28T07:41:26.710Z,7.00
2022-11-28T07:43:59.487Z,7.00
2022-11-28T07:46:27.938Z,7.10
2022-11-28T07:48:55.572Z,7.10
2022-11-28T07:51:26.445Z,7.10
2022-11-28T07:53:54.458Z,7.20
2022-11-28T07:56:25.119Z,7.20
2022-11-28T07:58:53.024Z,7.30
2022-11-28T08:01:26.917Z,7.30
2022-11-28T08:03:55.087Z,7.30
2022-11-28T08:06:25.713Z,7.40
2022-11-28T08:08:57.727Z,7.40
2022-11-28T08:11:26.111Z,7.40
2022-11-28T08:13:56.348Z,7.40
2022-11-28T08:16:27.176Z,7.40
2022-11-28T08:18:55.387Z,7.40
2022-11-28T08:21:24.236Z,7.50
2022-11-28T08:23:53.337Z,8.50
2022-11-28T08:26:30.409Z,7.50
2022-11-28T08:28:59.677Z,7.50
2022-11-28T08:31:33.584Z,7.50
2022-11-28T08:34:03.980Z,7.50
2022-11-28T08:36:31.294Z,7.60
2022-11-28T08:39:23.941Z,7.60
2022-11-28T08:41:49.988Z,7.60
2022-11-28T08:44:17.199Z,7.60
2022-11-28T08:46:47.757Z,7.60
2022-11-28T08:49:19.151Z,7.70
2022-11-28T08:51:46.766Z,7.70
2022-11-28T08:54:13.895Z,7.70
2022-11-28T08:56:41.240Z,7.70
2022-11-28T08:59:08.695Z,7.70
2022-11-28T09:01:36.007Z,7.70
2022-11-28T09:04:04.868Z,7.70
2022-11-28T09:06:32.390Z,7.70
2022-11-28T09:08:59.657Z,7.70
2022-11-28T09:11:27.045Z,7.70
2022-11-28T09:13:54.198Z,7.70
2022-11-28T09:16:21.503Z,7.70
2022-11-28T09:18:48.843Z,7.70
2022-11-28T09:21:16.353Z,7.80
2022-11-28T09:23:47.201Z,7.80
2022-11-28T09:26:19.676Z,7.80
2022-11-28T09:28:47.011Z,7.80
2022-11-28T09:31:16.318Z,7.80
2022-11-28T09:33:43.862Z,7.80
2022-11-28T09:36:17.266Z,7.80
2022-11-28T09:38:44.465Z,7.80
2022-11-28T09:41:55.939Z,7.80
2022-11-28T09:44:43.038Z,7.80
2022-11-28T09:47:22.059Z,7.80
2022-11-28T09:50:04.115Z,7.80
2022-11-28T09:52:43.789Z,7.80
2022-11-28T09:55:35.952Z,7.70
2022-11-28T09:58:19.675Z,7.70
2022-11-28T10:01:11.513Z,7.70
2022-11-28T10:03:47.754Z,7.70
2022-11-28T10:06:27.459Z,7.70
2022-11-28T10:09:39.629Z,7.70
2022-11-28T10:12:34.070Z,7.80
2022-11-28T10:15:25.883Z,7.80
2022-11-28T10:17:59.922Z,7.80
2022-11-28T10:20:38.337Z,7.80
2022-11-28T10:23:15.815Z,7.80
2022-11-28T10:25:53.906Z,7.90
2022-11-28T10:28:29.355Z,7.90
2022-11-28T10:31:05.057Z,7.90
2022-11-28T10:33:43.870Z,7.90
2022-11-28T10:36:24.894Z,7.90
2022-11-28T10:38:52.280Z,7.90
2022-11-28T10:41:29.092Z,7.90
2022-11-28T10:44:25.268Z,7.90
2022-11-28T10:47:07.961Z,7.90
2022-11-28T10:49:56.729Z,7.90
2022-11-28T10:53:01.831Z,8.00
2022-11-28T10:55:41.319Z,8.00
2022-11-28T10:58:33.062Z,8.00
2022-11-28T11:01:03.313Z,8.00
2022-11-28T11:03:38.717Z,8.00
2022-11-28T11:06:09.955Z,8.00
2022-11-28T11:08:39.654Z,8.00
2022-11-28T11:11:30.641Z,8.00
2022-11-28T11:14:09.881Z,8.00
2022-11-28T11:16:57.077Z,8.00
2022-11-28T11:19:39.202Z,8.10
2022-11-28T11:22:15.596Z,8.10
2022-11-28T11:24:42.778Z,8.10
2022-11-28T11:27:22.360Z,8.10
2022-11-28T11:29:51.614Z,8.10
2022-11-28T11:32:30.660Z,8.10
2022-11-28T11:34:59.822Z,8.10
2022-11-28T11:37:35.105Z,8.20
2022-11-28T11:40:04.160Z,8.20
2022-11-28T11:42:33.271Z,8.20
2022-11-28T11:45:34.867Z,8.20
2022-11-28T11:48:04.044Z,8.20
2022-11-28T11:50:33.408Z,8.20
2022-11-28T11:53:19.203Z,8.20
2022-11-28T11:55:55.033Z,8.20
2022-11-28T11:58:29.946Z,8.20
2022-11-28T12:00:59.989Z,8.30
2022-11-28T12:03:53.751Z,8.30
2022-11-28T12:06:32.957Z,8.30
2022-11-28T12:09:28.992Z,8.30
2022-11-28T12:12:12.913Z,8.30
2022-11-28T12:14:40.722Z,8.30
2022-11-28T12:17:55.754Z,8.30
2022-11-28T12:20:36.437Z,8.30
2022-11-28T12:23:28.090Z,8.30
2022-11-28T12:26:13.488Z,8.30
2022-11-28T12:28:57.845Z,8.40
2022-11-28T12:31:43.133Z,8.40
2022-11-28T12:34:26.406Z,8.40
2022-11-28T12:37:00.078Z,8.30
2022-11-28T12:40:10.652Z,8.30
2022-11-28T12:42:53.257Z,8.30
2022-11-28T12:45:48.996Z,8.30
2022-11-28T12:48:53.200Z,8.30
2022-11-28T12:51:55.534Z,8.30
2022-11-28T12:54:34.696Z,8.20
2022-11-28T12:57:16.908Z,8.20
2022-11-28T13:00:05.063Z,8.10
2022-11-28T13:02:53.887Z,8.10
2022-11-28T13:05:33.225Z,8.10
2022-11-28T13:08:48.414Z,8.00
2022-11-28T13:11:27.843Z,8.00
2022-11-28T13:14:26.834Z,8.00
2022-11-28T13:17:01.356Z,7.90
2022-11-28T13:19:40.878Z,7.90
2022-11-28T13:22:23.938Z,7.90
2022-11-28T13:25:13.324Z,7.90
2022-11-28T13:27:43.351Z,7.90
2022-11-28T13:30:24.059Z,7.90
2022-11-28T13:33:09.651Z,7.80
2022-11-28T13:35:38.264Z,7.90
2022-11-28T13:38:36.621Z,7.80
2022-11-28T13:44:46.172Z,7.80
2022-11-28T13:47:25.305Z,7.80
2022-11-28T13:49:52.591Z,7.80
2022-11-28T13:52:24.015Z,7.80
2022-11-28T13:54:54.452Z,7.70
2022-11-28T13:57:24.009Z,7.70
2022-11-28T14:00:04.948Z,7.70
2022-11-28T14:02:47.779Z,7.60
2022-11-28T14:05:41.680Z,7.60
2022-11-28T14:08:25.199Z,7.60
2022-11-28T14:10:56.569Z,7.60
2022-11-28T14:13:29.918Z,7.60
2022-11-28T14:16:02.831Z,7.60
2022-11-28T14:18:56.189Z,7.50
2022-11-28T14:21:57.487Z,7.50
2022-11-28T14:24:47.116Z,7.50
2022-11-28T14:27:23.771Z,7.50
2022-11-28T14:29:54.747Z,7.50
2022-11-28T14:32:38.122Z,7.50
2022-11-28T14:35:15.868Z,7.50
2022-11-28T14:37:54.176Z,7.50
2022-11-28T14:40:55.344Z,7.50
2022-11-28T14:43:54.372Z,7.50
2022-11-28T14:46:27.096Z,7.50
2022-11-28T14:49:01.326Z,7.50
2022-11-28T14:52:16.094Z,7.40
2022-11-28T14:54:48.821Z,7.40
2022-11-28T14:57:32.716Z,7.50
2022-11-28T15:00:13.860Z,7.40
2022-11-28T15:03:10.812Z,7.40
2022-11-28T15:05:44.884Z,7.40
2022-11-28T15:08:23.857Z,7.30
2022-11-28T15:11:24.012Z,7.30
2022-11-28T15:14:14.162Z,7.20
2022-11-28T15:16:49.960Z,7.20
2022-11-28T15:19:23.755Z,7.20
2022-11-28T15:21:53.564Z,7.10
2022-11-28T15:24:35.263Z,7.10
2022-11-28T15:27:08.316Z,7.00
2022-11-28T15:29:36.567Z,7.00
2022-11-28T15:32:04.951Z,7.00
2022-11-28T15:34:34.258Z,6.90
2022-11-28T15:37:06.568Z,6.90
2022-11-28T15:39:43.154Z,6.80
2022-11-28T15:42:26.997Z,6.80
2022-11-28T15:45:23.311Z,6.80
2022-11-28T15:47:52.352Z,6.80
2022-11-28T15:50:22.557Z,6.70
2022-11-28T15:53:04.967Z,6.70
2022-11-28T15:55:34.049Z,6.70
2022-11-28T15:58:30.526Z,6.60
2022-11-28T16:01:06.047Z,6.60
2022-11-28T16:03:43.830Z,6.60
2022-11-28T16:06:11.348Z,6.50
2022-11-28T16:08:45.932Z,6.50
2022-11-28T16:11:18.469Z,6.50
2022-11-28T16:13:46.365Z,6.40
2022-11-28T16:16:17.987Z,6.40
2022-11-28T16:18:53.788Z,6.40
2022-11-28T16:21:26.738Z,6.40
2022-11-28T16:23:53.974Z,6.30
2022-11-28T16:26:30.661Z,6.30
2022-11-28T16:29:06.006Z,6.30
2022-11-28T16:31:34.361Z,6.30
2022-11-28T16:34:02.275Z,6.30
2022-11-28T16:36:39.752Z,6.30
2022-11-28T16:39:09.900Z,6.30
2022-11-28T16:41:39.695Z,6.30
2022-11-28T16:44:18.911Z,6.30
2022-11-28T16:46:57.734Z,6.20
2022-11-28T16:49:38.440Z,6.20
2022-11-28T16:52:27.553Z,6.20
2022-11-28T16:54:58.895Z,6.20
2022-11-28T16:57:45.043Z,6.20
2022-11-28T17:00:12.755Z,6.20
2022-11-28T17:02:39.822Z,6.20
2022-11-28T17:05:07.377Z,6.20
2022-11-28T17:07:34.532Z,6.20
2022-11-28T17:10:01.635Z,6.20
2022-11-28T17:12:39.473Z,6.20
2022-11-28T17:15:10.662Z,6.20
2022-11-28T17:17:37.845Z,6.20
2022-11-28T17:20:05.624Z,6.20
2022-11-28T17:22:45.698Z,6.20
2022-11-28T17:25:19.242Z,6.20
2022-11-28T17:27:48.382Z,6.20
2022-11-28T17:30:17.622Z,6.20
2022-11-28T17:32:47.392Z,6.20
2022-11-28T17:35:23.855Z,6.20
2022-11-28T17:37:51.504Z,6.20
2022-11-28T17:40:33.534Z,6.20
2022-11-28T17:43:01.644Z,6.20
2022-11-28T17:45:31.561Z,6.20
2022-11-28T17:47:58.692Z,6.20
2022-11-28T17:50:25.804Z,6.20
2022-11-28T17:52:52.911Z,6.20
2022-11-28T17:55:20.873Z,6.20
2022-11-28T17:57:48.282Z,6.30
2022-11-28T18:00:15.872Z,6.20
2022-11-28T18:02:43.115Z,6.30
2022-11-28T18:05:10.670Z,6.30
2022-11-28T18:07:37.869Z,6.30
2022-11-28T18:10:05.605Z,6.30
2022-11-28T18:12:32.842Z,6.30
2022-11-28T18:15:01.777Z,6.30
2022-11-28T18:17:29.092Z,6.40
2022-11-28T18:19:57.923Z,6.40
2022-11-28T18:22:25.185Z,6.40
2022-11-28T18:24:52.288Z,6.40
2022-11-28T18:27:19.308Z,6.40
2022-11-28T18:29:46.829Z,6.40
2022-11-28T18:32:14.055Z,6.40
2022-11-28T18:34:41.064Z,6.40
2022-11-28T18:37:08.715Z,6.40
2022-11-28T18:39:35.777Z,6.40
2022-11-28T18:42:02.867Z,6.40
2022-11-28T18:44:30.055Z,6.40
2022-11-28T18:46:57.128Z,6.40
2022-11-28T18:49:24.328Z,6.40
2022-11-28T18:51:51.388Z,6.40
2022-11-28T18:54:21.287Z,6.40
2022-11-28T18:56:49.327Z,6.40
2022-11-28T18:59:16.442Z,6.40
2022-11-28T19:01:43.649Z,6.40
2022-11-28T19:04:12.844Z,6.40
2022-11-28T19:06:41.597Z,6.40
2022-11-28T19:09:11.466Z,6.40
2022-11-28T19:11:39.092Z,6.40
2022-11-28T19:14:08.391Z,6.40
2022-11-28T19:16:37.827Z,6.40
2022-11-28T19:19:05.986Z,6.40
2022-11-28T19:21:35.747Z,6.40
2022-11-28T19:24:03.592Z,6.40
2022-11-28T19:26:31.958Z,6.40
2022-11-28T19:29:00.032Z,6.40
2022-11-28T19:31:30.654Z,6.40
2022-11-28T19:34:04.088Z,6.50
2022-11-28T19:36:34.637Z,6.50
2022-11-28T19:39:01.802Z,6.50
2022-11-28T19:41:30.081Z,6.50
2022-11-28T19:43:57.638Z,6.50
2022-11-28T19:46:26.390Z,6.50
2022-11-28T19:48:57.691Z,6.60
2022-11-28T19:51:24.871Z,6.60
2022-11-28T19:53:51.918Z,6.60
2022-11-28T19:56:22.727Z,6.60
2022-11-28T19:58:49.949Z,6.60
2022-11-28T20:01:22.344Z,6.60
2022-11-28T20:03:50.838Z,6.60
2022-11-28T20:06:26.321Z,6.70
2022-11-28T20:08:55.447Z,6.70
2022-11-28T20:11:25.923Z,6.70
2022-11-28T20:13:58.448Z,6.70
2022-11-28T20:16:25.961Z,6.60
2022-11-28T20:18:53.107Z,6.60
2022-11-28T20:21:21.455Z,6.50
2022-11-28T20:23:51.073Z,6.50
2022-11-28T20:26:19.603Z,6.40
2022-11-28T20:28:47.187Z,6.40
2022-11-28T20:31:35.045Z,6.40
2022-11-28T20:34:03.054Z,6.30
2022-11-28T20:36:31.578Z,6.30
2022-11-28T20:38:58.988Z,6.30
2022-11-28T20:41:27.856Z,6.20
2022-11-28T20:43:54.954Z,6.20
2022-11-28T20:46:25.483Z,6.10
2022-11-28T20:48:52.915Z,6.10
2022-11-28T20:51:25.084Z,6.00
2022-11-28T20:53:53.591Z,6.00
2022-11-28T20:56:23.292Z,6.00
2022-11-28T20:58:51.155Z,5.90
2022-11-28T21:01:21.005Z,5.90
2022-11-28T21:03:48.878Z,5.90
2022-11-28T21:06:16.465Z,5.80
2022-11-28T21:08:43.763Z,5.80
2022-11-28T21:11:36.534Z,5.70
2022-11-28T21:14:05.506Z,5.70
2022-11-28T21:16:33.858Z,5.70
2022-11-28T21:19:07.744Z,5.70
2022-11-28T21:21:36.590Z,5.70
2022-11-28T21:24:10.489Z,5.70
2022-11-28T21:26:41.713Z,5.70
2022-11-28T21:29:12.275Z,5.60
2022-11-28T21:31:42.711Z,5.60
2022-11-28T21:34:14.611Z,5.60
2022-11-28T21:36:42.760Z,5.60
2022-11-28T21:39:15.346Z,5.50
2022-11-28T21:41:42.722Z,5.50
2022-11-28T21:44:09.833Z,5.50
2022-11-28T21:46:36.998Z,5.50
2022-11-28T21:49:04.190Z,5.50
2022-11-28T21:51:31.207Z,5.60
2022-11-28T21:53:58.502Z,5.60
2022-11-28T21:56:26.242Z,5.60
2022-11-28T21:58:53.365Z,5.60
2022-11-28T22:01:21.502Z,5.60
2022-11-28T22:03:49.146Z,5.50
2022-11-28T22:06:21.545Z,5.50
2022-11-28T22:08:48.944Z,5.50
2022-11-28T22:11:16.927Z,5.40
2022-11-28T22:13:47.876Z,5.40
2022-11-28T22:16:17.200Z,5.50
2022-11-28T22:18:44.650Z,5.40
2022-11-28T22:21:50.054Z,5.30
2022-11-28T22:23:59.626Z,5.30
2022-11-28T22:26:26.938Z,5.30
2022-11-28T22:28:54.215Z,5.30
2022-11-28T22:31:21.520Z,5.30
2022-11-28T22:33:49.391Z,5.30
2022-11-28T22:36:19.093Z,5.30
2022-11-28T22:38:47.726Z,5.30
2022-11-28T22:41:16.806Z,5.30
2022-11-28T22:43:44.669Z,5.30
2022-11-28T22:46:12.487Z,5.30
2022-11-28T22:48:40.537Z,5.30
2022-11-28T22:51:10.271Z,5.30
2022-11-28T22:53:37.588Z,5.20
2022-11-28T22:56:10.443Z,5.20
2022-11-28T22:58:42.524Z,5.20
2022-11-28T23:01:12.726Z,5.20
2022-11-28T23:03:40.078Z,5.20
2022-11-28T23:06:18.406Z,5.20
2022-11-28T23:08:45.913Z,5.20
2022-11-28T23:11:16.270Z,5.10
2022-11-28T23:13:44.159Z,5.10
2022-11-28T23:16:22.740Z,5.00
2022-11-28T23:18:52.243Z,5.00
2022-11-28T23:21:20.976Z,5.10
2022-11-28T23:23:48.500Z,5.00
2022-11-28T23:26:18.592Z,5.00
2022-11-28T23:28:46.117Z,5.00
2022-11-28T23:31:26.021Z,5.00
2022-11-28T23:33:53.591Z,5.00
2022-11-28T23:36:24.430Z,5.10
2022-11-28T23:38:54.940Z,5.00
2022-11-28T23:41:22.319Z,5.00
2022-11-28T23:43:49.891Z,4.90
2022-11-28T23:46:18.702Z,4.90
2022-11-28T23:48:46.764Z,4.90
2022-11-28T23:51:15.427Z,4.80
2022-11-28T23:53:43.703Z,4.90
2022-11-28T23:56:16.123Z,4.80
2022-11-28T23:58:43.505Z,4.80
